sensor_id;sensor_type;location;lat;lon;timestamp;P1;durP1;ratioP1;P2;durP2;ratioP2
73632;SDS011;61927;50.080;14.418;2023-05-02T00:00:06;11.25;;;3.65;;
73632;SDS011;61927;50.080;14.418;2023-05-02T00:02:52;5.35;;;3.50;;
73632;SDS011;61927;50.080;14.418;2023-05-02T00:05:18;5.47;;;3.45;;
73632;SDS011;61927;50.080;14.418;2023-05-02T00:07:44;6.85;;;3.53;;
73632;SDS011;61927;50.080;14.418;2023-05-02T00:10:10;3.55;;;3.25;;
73632;SDS011;61927;50.080;14.418;2023-05-02T00:12:35;9.32;;;3.70;;
73632;SDS011;61927;50.080;14.418;2023-05-02T00:15:01;6.25;;;3.58;;
73632;SDS011;61927;50.080;14.418;2023-05-02T00:17:26;5.70;;;3.40;;
73632;SDS011;61927;50.080;14.418;2023-05-02T00:19:52;5.47;;;3.38;;
73632;SDS011;61927;50.080;14.418;2023-05-02T00:22:17;4.50;;;3.75;;
73632;SDS011;61927;50.080;14.418;2023-05-02T00:24:44;7.40;;;3.60;;
73632;SDS011;61927;50.080;14.418;2023-05-02T00:27:09;6.80;;;3.47;;
73632;SDS011;61927;50.080;14.418;2023-05-02T00:29:35;6.38;;;3.47;;
73632;SDS011;61927;50.080;14.418;2023-05-02T00:32:00;5.78;;;3.88;;
73632;SDS011;61927;50.080;14.418;2023-05-02T00:34:29;4.25;;;3.67;;
73632;SDS011;61927;50.080;14.418;2023-05-02T00:36:55;5.15;;;3.95;;
73632;SDS011;61927;50.080;14.418;2023-05-02T00:39:21;6.90;;;3.58;;
73632;SDS011;61927;50.080;14.418;2023-05-02T00:41:47;7.50;;;3.80;;
73632;SDS011;61927;50.080;14.418;2023-05-02T00:44:13;6.57;;;3.47;;
73632;SDS011;61927;50.080;14.418;2023-05-02T00:46:38;6.18;;;3.80;;
73632;SDS011;61927;50.080;14.418;2023-05-02T00:49:04;6.25;;;3.55;;
73632;SDS011;61927;50.080;14.418;2023-05-02T00:51:31;6.05;;;3.90;;
73632;SDS011;61927;50.080;14.418;2023-05-02T00:53:57;4.35;;;3.58;;
73632;SDS011;61927;50.080;14.418;2023-05-02T00:56:25;6.90;;;3.72;;
73632;SDS011;61927;50.080;14.418;2023-05-02T00:58:51;4.40;;;3.33;;
73632;SDS011;61927;50.080;14.418;2023-05-02T01:07:04;8.02;;;3.45;;
73632;SDS011;61927;50.080;14.418;2023-05-02T01:09:59;11.90;;;4.18;;
73632;SDS011;61927;50.080;14.418;2023-05-02T01:15:11;10.32;;;4.07;;
73632;SDS011;61927;50.080;14.418;2023-05-02T01:17:41;10.73;;;4.60;;
73632;SDS011;61927;50.080;14.418;2023-05-02T01:20:14;6.40;;;4.10;;
73632;SDS011;61927;50.080;14.418;2023-05-02T01:22:44;5.82;;;4.25;;
73632;SDS011;61927;50.080;14.418;2023-05-02T01:30:53;5.05;;;3.63;;
73632;SDS011;61927;50.080;14.418;2023-05-02T01:33:20;4.20;;;3.80;;
73632;SDS011;61927;50.080;14.418;2023-05-02T01:35:49;9.43;;;4.03;;
73632;SDS011;61927;50.080;14.418;2023-05-02T01:38:17;4.95;;;4.30;;
73632;SDS011;61927;50.080;14.418;2023-05-02T01:40:44;4.85;;;3.95;;
73632;SDS011;61927;50.080;14.418;2023-05-02T01:43:14;7.28;;;4.30;;
73632;SDS011;61927;50.080;14.418;2023-05-02T01:45:42;5.10;;;3.90;;
73632;SDS011;61927;50.080;14.418;2023-05-02T01:48:09;6.95;;;4.43;;
73632;SDS011;61927;50.080;14.418;2023-05-02T01:50:36;6.78;;;4.30;;
73632;SDS011;61927;50.080;14.418;2023-05-02T01:53:05;4.93;;;4.20;;
73632;SDS011;61927;50.080;14.418;2023-05-02T01:55:33;5.75;;;4.38;;
73632;SDS011;61927;50.080;14.418;2023-05-02T01:58:01;6.80;;;4.20;;
73632;SDS011;61927;50.080;14.418;2023-05-02T02:00:28;5.38;;;4.18;;
73632;SDS011;61927;50.080;14.418;2023-05-02T02:02:56;9.25;;;4.78;;
73632;SDS011;61927;50.080;14.418;2023-05-02T02:05:23;5.53;;;4.32;;
73632;SDS011;61927;50.080;14.418;2023-05-02T02:07:51;10.88;;;4.68;;
73632;SDS011;61927;50.080;14.418;2023-05-02T02:10:17;6.90;;;4.80;;
73632;SDS011;61927;50.080;14.418;2023-05-02T02:12:52;9.18;;;4.72;;
73632;SDS011;61927;50.080;14.418;2023-05-02T02:15:26;9.90;;;5.03;;
73632;SDS011;61927;50.080;14.418;2023-05-02T02:17:59;5.68;;;4.32;;
73632;SDS011;61927;50.080;14.418;2023-05-02T02:20:30;10.27;;;5.22;;
73632;SDS011;61927;50.080;14.418;2023-05-02T02:22:57;10.57;;;4.68;;
73632;SDS011;61927;50.080;14.418;2023-05-02T02:25:25;7.55;;;5.07;;
73632;SDS011;61927;50.080;14.418;2023-05-02T02:27:51;7.32;;;5.20;;
73632;SDS011;61927;50.080;14.418;2023-05-02T02:30:18;8.18;;;5.72;;
73632;SDS011;61927;50.080;14.418;2023-05-02T02:32:43;6.45;;;5.45;;
73632;SDS011;61927;50.080;14.418;2023-05-02T02:35:09;6.13;;;4.82;;
73632;SDS011;61927;50.080;14.418;2023-05-02T02:37:40;7.35;;;4.75;;
73632;SDS011;61927;50.080;14.418;2023-05-02T02:40:15;7.47;;;5.07;;
73632;SDS011;61927;50.080;14.418;2023-05-02T02:46:13;7.28;;;4.85;;
73632;SDS011;61927;50.080;14.418;2023-05-02T02:51:52;6.80;;;4.95;;
73632;SDS011;61927;50.080;14.418;2023-05-02T02:54:28;8.93;;;5.03;;
73632;SDS011;61927;50.080;14.418;2023-05-02T02:57:17;9.02;;;5.03;;
73632;SDS011;61927;50.080;14.418;2023-05-02T02:59:50;7.07;;;4.72;;
73632;SDS011;61927;50.080;14.418;2023-05-02T03:02:25;8.90;;;5.40;;
73632;SDS011;61927;50.080;14.418;2023-05-02T03:04:53;7.70;;;5.40;;
73632;SDS011;61927;50.080;14.418;2023-05-02T03:07:20;7.18;;;5.20;;
73632;SDS011;61927;50.080;14.418;2023-05-02T03:09:46;10.95;;;5.50;;
73632;SDS011;61927;50.080;14.418;2023-05-02T03:12:13;7.28;;;5.10;;
73632;SDS011;61927;50.080;14.418;2023-05-02T03:14:39;7.10;;;4.75;;
73632;SDS011;61927;50.080;14.418;2023-05-02T03:17:05;7.45;;;5.43;;
73632;SDS011;61927;50.080;14.418;2023-05-02T03:19:34;9.50;;;5.10;;
73632;SDS011;61927;50.080;14.418;2023-05-02T03:22:01;6.82;;;4.90;;
73632;SDS011;61927;50.080;14.418;2023-05-02T03:24:27;7.30;;;5.28;;
73632;SDS011;61927;50.080;14.418;2023-05-02T03:26:54;7.57;;;4.65;;
73632;SDS011;61927;50.080;14.418;2023-05-02T03:29:20;8.80;;;5.15;;
73632;SDS011;61927;50.080;14.418;2023-05-02T03:31:47;8.85;;;5.28;;
73632;SDS011;61927;50.080;14.418;2023-05-02T03:34:13;6.32;;;4.97;;
73632;SDS011;61927;50.080;14.418;2023-05-02T03:36:39;6.85;;;5.32;;
73632;SDS011;61927;50.080;14.418;2023-05-02T03:39:04;8.05;;;4.78;;
73632;SDS011;61927;50.080;14.418;2023-05-02T03:41:31;14.13;;;5.28;;
73632;SDS011;61927;50.080;14.418;2023-05-02T03:43:56;8.02;;;5.25;;
73632;SDS011;61927;50.080;14.418;2023-05-02T03:46:22;7.45;;;4.57;;
73632;SDS011;61927;50.080;14.418;2023-05-02T03:48:48;7.57;;;5.28;;
73632;SDS011;61927;50.080;14.418;2023-05-02T03:51:13;9.02;;;5.57;;
73632;SDS011;61927;50.080;14.418;2023-05-02T03:53:39;5.95;;;4.82;;
73632;SDS011;61927;50.080;14.418;2023-05-02T03:56:05;5.47;;;4.78;;
73632;SDS011;61927;50.080;14.418;2023-05-02T03:58:32;7.25;;;5.03;;
73632;SDS011;61927;50.080;14.418;2023-05-02T04:00:58;7.97;;;4.88;;
73632;SDS011;61927;50.080;14.418;2023-05-02T04:03:23;20.70;;;5.70;;
73632;SDS011;61927;50.080;14.418;2023-05-02T04:05:49;8.52;;;4.95;;
73632;SDS011;61927;50.080;14.418;2023-05-02T04:08:16;6.68;;;4.68;;
73632;SDS011;61927;50.080;14.418;2023-05-02T04:10:42;12.50;;;6.22;;
73632;SDS011;61927;50.080;14.418;2023-05-02T04:13:07;6.28;;;5.15;;
73632;SDS011;61927;50.080;14.418;2023-05-02T04:15:33;6.90;;;5.20;;
73632;SDS011;61927;50.080;14.418;2023-05-02T04:17:59;6.97;;;4.93;;
73632;SDS011;61927;50.080;14.418;2023-05-02T04:20:25;12.63;;;5.55;;
73632;SDS011;61927;50.080;14.418;2023-05-02T04:22:51;6.90;;;5.40;;
73632;SDS011;61927;50.080;14.418;2023-05-02T04:25:16;11.65;;;4.97;;
73632;SDS011;61927;50.080;14.418;2023-05-02T04:27:42;6.97;;;5.15;;
73632;SDS011;61927;50.080;14.418;2023-05-02T04:30:08;6.93;;;5.35;;
73632;SDS011;61927;50.080;14.418;2023-05-02T04:32:35;7.35;;;5.55;;
73632;SDS011;61927;50.080;14.418;2023-05-02T04:35:01;9.90;;;6.53;;
73632;SDS011;61927;50.080;14.418;2023-05-02T04:37:26;12.70;;;6.35;;
73632;SDS011;61927;50.080;14.418;2023-05-02T04:39:52;12.93;;;6.43;;
73632;SDS011;61927;50.080;14.418;2023-05-02T04:42:18;10.52;;;5.38;;
73632;SDS011;61927;50.080;14.418;2023-05-02T04:44:43;7.85;;;5.35;;
73632;SDS011;61927;50.080;14.418;2023-05-02T04:47:09;10.18;;;5.43;;
73632;SDS011;61927;50.080;14.418;2023-05-02T04:49:35;15.32;;;7.55;;
73632;SDS011;61927;50.080;14.418;2023-05-02T04:52:00;12.02;;;5.90;;
73632;SDS011;61927;50.080;14.418;2023-05-02T04:54:26;9.70;;;6.20;;
73632;SDS011;61927;50.080;14.418;2023-05-02T04:56:52;7.70;;;4.93;;
73632;SDS011;61927;50.080;14.418;2023-05-02T04:59:18;8.13;;;5.43;;
73632;SDS011;61927;50.080;14.418;2023-05-02T05:01:43;10.15;;;5.40;;
73632;SDS011;61927;50.080;14.418;2023-05-02T05:04:09;11.25;;;5.63;;
73632;SDS011;61927;50.080;14.418;2023-05-02T05:06:35;7.45;;;5.55;;
73632;SDS011;61927;50.080;14.418;2023-05-02T05:09:01;15.73;;;5.97;;
73632;SDS011;61927;50.080;14.418;2023-05-02T05:11:27;17.98;;;6.32;;
73632;SDS011;61927;50.080;14.418;2023-05-02T05:13:53;22.45;;;14.02;;
73632;SDS011;61927;50.080;14.418;2023-05-02T05:16:18;8.35;;;5.45;;
73632;SDS011;61927;50.080;14.418;2023-05-02T05:18:44;9.50;;;5.40;;
73632;SDS011;61927;50.080;14.418;2023-05-02T05:21:10;10.35;;;5.20;;
73632;SDS011;61927;50.080;14.418;2023-05-02T05:23:36;12.55;;;5.72;;
73632;SDS011;61927;50.080;14.418;2023-05-02T05:26:12;11.73;;;5.70;;
73632;SDS011;61927;50.080;14.418;2023-05-02T05:28:42;9.77;;;4.75;;
73632;SDS011;61927;50.080;14.418;2023-05-02T05:31:08;7.57;;;5.72;;
73632;SDS011;61927;50.080;14.418;2023-05-02T05:33:39;10.68;;;5.57;;
73632;SDS011;61927;50.080;14.418;2023-05-02T05:36:11;6.10;;;5.05;;
73632;SDS011;61927;50.080;14.418;2023-05-02T05:38:41;8.30;;;5.65;;
73632;SDS011;61927;50.080;14.418;2023-05-02T05:41:07;15.10;;;5.50;;
73632;SDS011;61927;50.080;14.418;2023-05-02T05:43:33;19.08;;;5.75;;
73632;SDS011;61927;50.080;14.418;2023-05-02T05:45:59;13.43;;;5.40;;
73632;SDS011;61927;50.080;14.418;2023-05-02T05:48:24;19.83;;;5.75;;
73632;SDS011;61927;50.080;14.418;2023-05-02T05:50:50;8.10;;;6.00;;
73632;SDS011;61927;50.080;14.418;2023-05-02T05:53:19;5.90;;;4.90;;
73632;SDS011;61927;50.080;14.418;2023-05-02T05:55:44;15.07;;;6.00;;
73632;SDS011;61927;50.080;14.418;2023-05-02T05:58:10;11.60;;;5.57;;
73632;SDS011;61927;50.080;14.418;2023-05-02T06:00:36;8.63;;;5.57;;
73632;SDS011;61927;50.080;14.418;2023-05-02T06:03:03;12.10;;;5.57;;
73632;SDS011;61927;50.080;14.418;2023-05-02T06:05:29;11.18;;;5.40;;
73632;SDS011;61927;50.080;14.418;2023-05-02T06:07:55;8.90;;;5.55;;
73632;SDS011;61927;50.080;14.418;2023-05-02T06:10:21;10.45;;;5.00;;
73632;SDS011;61927;50.080;14.418;2023-05-02T06:12:47;20.30;;;5.90;;
73632;SDS011;61927;50.080;14.418;2023-05-02T06:15:13;20.63;;;5.50;;
73632;SDS011;61927;50.080;14.418;2023-05-02T06:17:39;6.13;;;5.00;;
73632;SDS011;61927;50.080;14.418;2023-05-02T06:20:04;8.82;;;5.18;;
73632;SDS011;61927;50.080;14.418;2023-05-02T06:22:31;24.05;;;11.25;;
73632;SDS011;61927;50.080;14.418;2023-05-02T06:24:57;10.25;;;5.25;;
73632;SDS011;61927;50.080;14.418;2023-05-02T06:27:22;10.65;;;6.15;;
73632;SDS011;61927;50.080;14.418;2023-05-02T06:29:51;10.00;;;5.45;;
73632;SDS011;61927;50.080;14.418;2023-05-02T06:32:21;15.60;;;7.07;;
73632;SDS011;61927;50.080;14.418;2023-05-02T06:34:46;10.05;;;5.50;;
73632;SDS011;61927;50.080;14.418;2023-05-02T06:37:12;10.80;;;6.28;;
73632;SDS011;61927;50.080;14.418;2023-05-02T06:39:38;15.38;;;7.82;;
73632;SDS011;61927;50.080;14.418;2023-05-02T06:42:03;19.17;;;11.63;;
73632;SDS011;61927;50.080;14.418;2023-05-02T06:44:29;9.68;;;5.93;;
73632;SDS011;61927;50.080;14.418;2023-05-02T06:46:55;13.60;;;5.47;;
73632;SDS011;61927;50.080;14.418;2023-05-02T06:49:21;8.65;;;5.90;;
73632;SDS011;61927;50.080;14.418;2023-05-02T06:51:47;8.18;;;5.03;;
73632;SDS011;61927;50.080;14.418;2023-05-02T06:54:12;11.63;;;5.40;;
73632;SDS011;61927;50.080;14.418;2023-05-02T06:56:40;14.68;;;5.75;;
73632;SDS011;61927;50.080;14.418;2023-05-02T06:59:06;11.90;;;5.32;;
73632;SDS011;61927;50.080;14.418;2023-05-02T07:01:32;9.15;;;5.63;;
73632;SDS011;61927;50.080;14.418;2023-05-02T07:03:58;11.55;;;5.80;;
73632;SDS011;61927;50.080;14.418;2023-05-02T07:06:26;10.05;;;5.50;;
73632;SDS011;61927;50.080;14.418;2023-05-02T07:08:53;10.45;;;5.68;;
73632;SDS011;61927;50.080;14.418;2023-05-02T07:11:19;11.43;;;5.35;;
73632;SDS011;61927;50.080;14.418;2023-05-02T07:13:47;10.05;;;6.10;;
73632;SDS011;61927;50.080;14.418;2023-05-02T07:16:13;15.75;;;6.05;;
73632;SDS011;61927;50.080;14.418;2023-05-02T07:18:39;20.17;;;5.82;;
73632;SDS011;61927;50.080;14.418;2023-05-02T07:21:06;7.78;;;4.95;;
73632;SDS011;61927;50.080;14.418;2023-05-02T07:23:32;9.93;;;5.25;;
73632;SDS011;61927;50.080;14.418;2023-05-02T07:25:58;12.65;;;5.20;;
73632;SDS011;61927;50.080;14.418;2023-05-02T07:28:24;8.55;;;5.05;;
73632;SDS011;61927;50.080;14.418;2023-05-02T07:30:50;12.48;;;5.05;;
73632;SDS011;61927;50.080;14.418;2023-05-02T07:33:16;12.95;;;5.50;;
73632;SDS011;61927;50.080;14.418;2023-05-02T07:35:42;13.48;;;5.28;;
73632;SDS011;61927;50.080;14.418;2023-05-02T07:38:07;9.23;;;5.53;;
73632;SDS011;61927;50.080;14.418;2023-05-02T07:40:33;14.88;;;5.20;;
73632;SDS011;61927;50.080;14.418;2023-05-02T07:43:01;20.65;;;6.88;;
73632;SDS011;61927;50.080;14.418;2023-05-02T07:45:27;23.48;;;6.75;;
73632;SDS011;61927;50.080;14.418;2023-05-02T07:47:53;19.35;;;5.50;;
73632;SDS011;61927;50.080;14.418;2023-05-02T07:50:19;6.03;;;4.60;;
73632;SDS011;61927;50.080;14.418;2023-05-02T07:52:45;8.32;;;4.60;;
73632;SDS011;61927;50.080;14.418;2023-05-02T07:55:10;16.75;;;5.10;;
73632;SDS011;61927;50.080;14.418;2023-05-02T07:57:36;9.90;;;4.57;;
73632;SDS011;61927;50.080;14.418;2023-05-02T08:00:03;18.38;;;4.80;;
73632;SDS011;61927;50.080;14.418;2023-05-02T08:02:32;8.57;;;4.93;;
73632;SDS011;61927;50.080;14.418;2023-05-02T08:04:57;12.70;;;4.53;;
73632;SDS011;61927;50.080;14.418;2023-05-02T08:07:23;6.40;;;4.30;;
73632;SDS011;61927;50.080;14.418;2023-05-02T08:09:49;9.40;;;4.47;;
73632;SDS011;61927;50.080;14.418;2023-05-02T08:12:14;10.52;;;5.82;;
73632;SDS011;61927;50.080;14.418;2023-05-02T08:14:40;9.98;;;4.90;;
73632;SDS011;61927;50.080;14.418;2023-05-02T08:17:06;7.93;;;4.72;;
73632;SDS011;61927;50.080;14.418;2023-05-02T08:19:32;6.13;;;4.93;;
73632;SDS011;61927;50.080;14.418;2023-05-02T08:21:57;12.95;;;5.28;;
73632;SDS011;61927;50.080;14.418;2023-05-02T08:24:23;8.90;;;4.88;;
73632;SDS011;61927;50.080;14.418;2023-05-02T08:26:49;9.63;;;4.47;;
73632;SDS011;61927;50.080;14.418;2023-05-02T08:29:15;10.77;;;4.88;;
73632;SDS011;61927;50.080;14.418;2023-05-02T08:31:40;12.63;;;5.53;;
73632;SDS011;61927;50.080;14.418;2023-05-02T08:34:06;9.52;;;4.78;;
73632;SDS011;61927;50.080;14.418;2023-05-02T08:36:32;6.97;;;4.90;;
73632;SDS011;61927;50.080;14.418;2023-05-02T08:38:58;7.53;;;4.15;;
73632;SDS011;61927;50.080;14.418;2023-05-02T08:41:24;9.95;;;4.45;;
73632;SDS011;61927;50.080;14.418;2023-05-02T08:43:50;12.10;;;4.60;;
73632;SDS011;61927;50.080;14.418;2023-05-02T08:46:17;10.10;;;4.88;;
73632;SDS011;61927;50.080;14.418;2023-05-02T08:48:44;8.07;;;4.43;;
73632;SDS011;61927;50.080;14.418;2023-05-02T08:51:15;10.35;;;4.80;;
73632;SDS011;61927;50.080;14.418;2023-05-02T08:53:42;11.50;;;4.10;;
73632;SDS011;61927;50.080;14.418;2023-05-02T08:56:08;6.78;;;3.92;;
73632;SDS011;61927;50.080;14.418;2023-05-02T08:58:36;23.10;;;4.55;;
73632;SDS011;61927;50.080;14.418;2023-05-02T09:01:08;8.60;;;4.28;;
73632;SDS011;61927;50.080;14.418;2023-05-02T09:03:37;9.43;;;4.07;;
73632;SDS011;61927;50.080;14.418;2023-05-02T09:06:05;4.68;;;4.03;;
73632;SDS011;61927;50.080;14.418;2023-05-02T09:08:34;4.72;;;3.90;;
73632;SDS011;61927;50.080;14.418;2023-05-02T09:11:02;14.05;;;5.22;;
73632;SDS011;61927;50.080;14.418;2023-05-02T09:14:02;19.27;;;6.47;;
73632;SDS011;61927;50.080;14.418;2023-05-02T09:16:23;10.85;;;4.65;;
73632;SDS011;61927;50.080;14.418;2023-05-02T09:18:52;12.43;;;4.78;;
73632;SDS011;61927;50.080;14.418;2023-05-02T09:21:22;6.00;;;3.85;;
73632;SDS011;61927;50.080;14.418;2023-05-02T09:23:50;10.77;;;3.97;;
73632;SDS011;61927;50.080;14.418;2023-05-02T09:31:13;6.35;;;4.00;;
73632;SDS011;61927;50.080;14.418;2023-05-02T09:33:40;12.07;;;4.00;;
73632;SDS011;61927;50.080;14.418;2023-05-02T09:36:07;13.00;;;4.60;;
73632;SDS011;61927;50.080;14.418;2023-05-02T09:38:34;4.15;;;3.72;;
73632;SDS011;61927;50.080;14.418;2023-05-02T09:41:00;8.25;;;4.38;;
73632;SDS011;61927;50.080;14.418;2023-05-02T09:43:28;9.20;;;4.68;;
73632;SDS011;61927;50.080;14.418;2023-05-02T09:45:56;5.88;;;4.25;;
73632;SDS011;61927;50.080;14.418;2023-05-02T09:51:17;5.13;;;3.90;;
73632;SDS011;61927;50.080;14.418;2023-05-02T09:53:43;5.68;;;4.00;;
73632;SDS011;61927;50.080;14.418;2023-05-02T09:56:09;9.93;;;4.18;;
73632;SDS011;61927;50.080;14.418;2023-05-02T09:58:37;7.78;;;4.00;;
73632;SDS011;61927;50.080;14.418;2023-05-02T10:01:03;12.18;;;3.97;;
73632;SDS011;61927;50.080;14.418;2023-05-02T10:03:29;9.23;;;4.40;;
73632;SDS011;61927;50.080;14.418;2023-05-02T10:05:56;5.88;;;4.07;;
73632;SDS011;61927;50.080;14.418;2023-05-02T10:08:26;10.27;;;4.40;;
73632;SDS011;61927;50.080;14.418;2023-05-02T10:10:54;12.88;;;4.28;;
73632;SDS011;61927;50.080;14.418;2023-05-02T10:13:23;5.32;;;3.80;;
73632;SDS011;61927;50.080;14.418;2023-05-02T10:16:01;6.57;;;4.20;;
73632;SDS011;61927;50.080;14.418;2023-05-02T10:18:39;5.68;;;3.88;;
73632;SDS011;61927;50.080;14.418;2023-05-02T10:21:11;5.55;;;3.88;;
73632;SDS011;61927;50.080;14.418;2023-05-02T10:23:41;6.72;;;3.92;;
73632;SDS011;61927;50.080;14.418;2023-05-02T10:26:09;13.50;;;4.50;;
73632;SDS011;61927;50.080;14.418;2023-05-02T10:28:40;7.43;;;4.00;;
73632;SDS011;61927;50.080;14.418;2023-05-02T10:31:08;9.77;;;3.83;;
73632;SDS011;61927;50.080;14.418;2023-05-02T10:33:37;6.32;;;4.47;;
73632;SDS011;61927;50.080;14.418;2023-05-02T10:36:04;10.05;;;3.90;;
73632;SDS011;61927;50.080;14.418;2023-05-02T10:38:31;11.05;;;4.53;;
73632;SDS011;61927;50.080;14.418;2023-05-02T10:40:58;6.07;;;4.40;;
73632;SDS011;61927;50.080;14.418;2023-05-02T10:43:30;9.82;;;4.32;;
73632;SDS011;61927;50.080;14.418;2023-05-02T10:45:58;7.28;;;4.30;;
73632;SDS011;61927;50.080;14.418;2023-05-02T10:48:25;5.57;;;4.00;;
73632;SDS011;61927;50.080;14.418;2023-05-02T10:50:58;10.13;;;4.22;;
73632;SDS011;61927;50.080;14.418;2023-05-02T10:53:28;11.05;;;4.10;;
73632;SDS011;61927;50.080;14.418;2023-05-02T10:58:49;6.38;;;4.15;;
73632;SDS011;61927;50.080;14.418;2023-05-02T11:03:54;9.73;;;4.60;;
73632;SDS011;61927;50.080;14.418;2023-05-02T11:06:28;8.02;;;4.63;;
73632;SDS011;61927;50.080;14.418;2023-05-02T11:09:29;10.50;;;4.45;;
73632;SDS011;61927;50.080;14.418;2023-05-02T11:11:47;5.57;;;4.05;;
73632;SDS011;61927;50.080;14.418;2023-05-02T11:19:25;7.75;;;4.15;;
73632;SDS011;61927;50.080;14.418;2023-05-02T11:21:52;6.30;;;3.97;;
73632;SDS011;61927;50.080;14.418;2023-05-02T11:35:27;4.93;;;4.25;;
73632;SDS011;61927;50.080;14.418;2023-05-02T11:37:57;6.95;;;4.03;;
73632;SDS011;61927;50.080;14.418;2023-05-02T11:40:30;7.85;;;4.18;;
73632;SDS011;61927;50.080;14.418;2023-05-02T11:42:57;5.97;;;4.10;;
73632;SDS011;61927;50.080;14.418;2023-05-02T11:45:31;8.43;;;4.03;;
73632;SDS011;61927;50.080;14.418;2023-05-02T11:48:00;7.78;;;3.53;;
73632;SDS011;61927;50.080;14.418;2023-05-02T11:50:28;8.13;;;3.45;;
73632;SDS011;61927;50.080;14.418;2023-05-02T11:52:54;5.53;;;3.15;;
73632;SDS011;61927;50.080;14.418;2023-05-02T11:55:20;5.22;;;3.55;;
73632;SDS011;61927;50.080;14.418;2023-05-02T11:57:46;6.80;;;3.80;;
73632;SDS011;61927;50.080;14.418;2023-05-02T12:00:13;3.97;;;3.08;;
73632;SDS011;61927;50.080;14.418;2023-05-02T12:02:40;6.15;;;3.40;;
73632;SDS011;61927;50.080;14.418;2023-05-02T12:05:11;7.45;;;3.28;;
73632;SDS011;61927;50.080;14.418;2023-05-02T12:07:52;8.23;;;2.90;;
73632;SDS011;61927;50.080;14.418;2023-05-02T12:10:18;4.38;;;2.90;;
73632;SDS011;61927;50.080;14.418;2023-05-02T12:12:43;9.55;;;3.10;;
73632;SDS011;61927;50.080;14.418;2023-05-02T12:15:10;9.45;;;2.95;;
73632;SDS011;61927;50.080;14.418;2023-05-02T12:17:38;15.35;;;3.58;;
73632;SDS011;61927;50.080;14.418;2023-05-02T12:20:06;12.50;;;4.53;;
73632;SDS011;61927;50.080;14.418;2023-05-02T12:22:33;8.13;;;3.70;;
73632;SDS011;61927;50.080;14.418;2023-05-02T12:25:00;11.55;;;3.53;;
73632;SDS011;61927;50.080;14.418;2023-05-02T12:27:28;9.15;;;3.95;;
73632;SDS011;61927;50.080;14.418;2023-05-02T12:29:54;12.25;;;2.92;;
73632;SDS011;61927;50.080;14.418;2023-05-02T12:32:33;8.00;;;3.00;;
73632;SDS011;61927;50.080;14.418;2023-05-02T12:35:01;8.60;;;3.95;;
73632;SDS011;61927;50.080;14.418;2023-05-02T12:37:28;4.45;;;2.80;;
73632;SDS011;61927;50.080;14.418;2023-05-02T12:39:54;6.68;;;2.95;;
73632;SDS011;61927;50.080;14.418;2023-05-02T12:42:21;6.90;;;3.45;;
73632;SDS011;61927;50.080;14.418;2023-05-02T12:44:50;3.75;;;3.13;;
73632;SDS011;61927;50.080;14.418;2023-05-02T12:47:21;7.43;;;2.90;;
73632;SDS011;61927;50.080;14.418;2023-05-02T12:49:50;9.68;;;3.25;;
73632;SDS011;61927;50.080;14.418;2023-05-02T12:55:14;11.38;;;2.40;;
73632;SDS011;61927;50.080;14.418;2023-05-02T12:58:01;5.95;;;2.88;;
73632;SDS011;61927;50.080;14.418;2023-05-02T13:00:28;5.20;;;2.70;;
73632;SDS011;61927;50.080;14.418;2023-05-02T13:02:55;4.80;;;2.75;;
73632;SDS011;61927;50.080;14.418;2023-05-02T13:05:21;4.15;;;2.83;;
73632;SDS011;61927;50.080;14.418;2023-05-02T13:07:47;4.53;;;2.78;;
73632;SDS011;61927;50.080;14.418;2023-05-02T13:10:12;5.47;;;2.70;;
73632;SDS011;61927;50.080;14.418;2023-05-02T13:12:39;5.43;;;2.30;;
73632;SDS011;61927;50.080;14.418;2023-05-02T13:15:06;7.40;;;3.13;;
73632;SDS011;61927;50.080;14.418;2023-05-02T13:17:33;4.60;;;3.08;;
73632;SDS011;61927;50.080;14.418;2023-05-02T13:19:59;4.85;;;2.97;;
73632;SDS011;61927;50.080;14.418;2023-05-02T13:22:26;4.90;;;2.90;;
73632;SDS011;61927;50.080;14.418;2023-05-02T13:24:55;3.88;;;3.00;;
73632;SDS011;61927;50.080;14.418;2023-05-02T13:27:21;5.53;;;2.70;;
73632;SDS011;61927;50.080;14.418;2023-05-02T13:29:58;3.80;;;2.65;;
73632;SDS011;61927;50.080;14.418;2023-05-02T13:32:26;15.25;;;3.15;;
73632;SDS011;61927;50.080;14.418;2023-05-02T13:34:53;7.60;;;3.30;;
73632;SDS011;61927;50.080;14.418;2023-05-02T13:37:18;18.30;;;3.13;;
73632;SDS011;61927;50.080;14.418;2023-05-02T13:39:47;7.18;;;3.15;;
73632;SDS011;61927;50.080;14.418;2023-05-02T13:42:13;7.10;;;3.20;;
73632;SDS011;61927;50.080;14.418;2023-05-02T13:44:38;9.00;;;3.10;;
73632;SDS011;61927;50.080;14.418;2023-05-02T13:47:05;7.95;;;2.97;;
73632;SDS011;61927;50.080;14.418;2023-05-02T13:49:31;5.50;;;3.50;;
73632;SDS011;61927;50.080;14.418;2023-05-02T13:51:57;11.95;;;3.33;;
73632;SDS011;61927;50.080;14.418;2023-05-02T13:54:22;9.88;;;3.40;;
73632;SDS011;61927;50.080;14.418;2023-05-02T13:56:48;17.38;;;4.15;;
73632;SDS011;61927;50.080;14.418;2023-05-02T13:59:14;5.20;;;3.70;;
73632;SDS011;61927;50.080;14.418;2023-05-02T14:01:48;10.55;;;3.83;;
73632;SDS011;61927;50.080;14.418;2023-05-02T14:04:13;6.50;;;3.80;;
73632;SDS011;61927;50.080;14.418;2023-05-02T14:06:39;12.73;;;3.78;;
73632;SDS011;61927;50.080;14.418;2023-05-02T14:09:06;4.75;;;3.20;;
73632;SDS011;61927;50.080;14.418;2023-05-02T14:11:32;5.72;;;3.15;;
73632;SDS011;61927;50.080;14.418;2023-05-02T14:13:57;5.20;;;3.13;;
73632;SDS011;61927;50.080;14.418;2023-05-02T14:16:24;10.68;;;3.72;;
73632;SDS011;61927;50.080;14.418;2023-05-02T14:18:51;7.40;;;3.35;;
73632;SDS011;61927;50.080;14.418;2023-05-02T14:21:17;10.27;;;3.80;;
73632;SDS011;61927;50.080;14.418;2023-05-02T14:23:43;6.00;;;3.60;;
73632;SDS011;61927;50.080;14.418;2023-05-02T14:26:10;5.65;;;3.50;;
73632;SDS011;61927;50.080;14.418;2023-05-02T14:28:36;3.13;;;2.80;;
73632;SDS011;61927;50.080;14.418;2023-05-02T14:31:04;6.90;;;3.30;;
73632;SDS011;61927;50.080;14.418;2023-05-02T14:33:30;11.00;;;3.40;;
73632;SDS011;61927;50.080;14.418;2023-05-02T14:35:56;5.30;;;2.80;;
73632;SDS011;61927;50.080;14.418;2023-05-02T14:38:22;4.88;;;2.97;;
73632;SDS011;61927;50.080;14.418;2023-05-02T14:40:47;7.47;;;3.22;;
73632;SDS011;61927;50.080;14.418;2023-05-02T14:43:13;10.80;;;3.38;;
73632;SDS011;61927;50.080;14.418;2023-05-02T14:45:39;10.57;;;2.92;;
73632;SDS011;61927;50.080;14.418;2023-05-02T14:48:06;4.97;;;2.83;;
73632;SDS011;61927;50.080;14.418;2023-05-02T14:50:33;12.63;;;3.30;;
73632;SDS011;61927;50.080;14.418;2023-05-02T14:53:01;6.75;;;3.47;;
73632;SDS011;61927;50.080;14.418;2023-05-02T14:55:27;6.32;;;3.15;;
73632;SDS011;61927;50.080;14.418;2023-05-02T14:57:52;11.27;;;3.50;;
73632;SDS011;61927;50.080;14.418;2023-05-02T15:00:18;3.50;;;2.92;;
73632;SDS011;61927;50.080;14.418;2023-05-02T15:02:45;3.15;;;2.85;;
73632;SDS011;61927;50.080;14.418;2023-05-02T15:05:11;6.47;;;3.08;;
73632;SDS011;61927;50.080;14.418;2023-05-02T15:07:37;10.48;;;3.15;;
73632;SDS011;61927;50.080;14.418;2023-05-02T15:10:03;4.72;;;3.13;;
73632;SDS011;61927;50.080;14.418;2023-05-02T15:12:29;6.40;;;3.53;;
73632;SDS011;61927;50.080;14.418;2023-05-02T15:14:55;4.07;;;3.00;;
73632;SDS011;61927;50.080;14.418;2023-05-02T15:17:20;3.25;;;2.95;;
73632;SDS011;61927;50.080;14.418;2023-05-02T15:19:46;3.92;;;3.38;;
73632;SDS011;61927;50.080;14.418;2023-05-02T15:22:12;3.75;;;2.80;;
73632;SDS011;61927;50.080;14.418;2023-05-02T15:24:37;7.03;;;2.80;;